Orbital elements of BREEZE-M DEB
| Launched | 27 February 2006 |
| Flight ended | – |
| Launch site | Tyuratam Missile and Space Center, Kazakhstan (Also known as Baikonur Cosmodrome) |
| Owner | Commonwealth of Independent States (former USSR) |
| NORAD ID | 32042 |
| Date fetched |
Epoch osculation |
Inc. [°] |
Ecc. | RA asc node [hr] |
Arg Peri. [°] |
Mean anom [°] |
Mean motion [rev/day] |
Abs. mag |
| Date fetched |
Epoch osculation |
Inc. [°] |
Ecc. | RA asc node [hr] |
Arg Peri. [°] |
Mean anom [°] |
Mean motion [rev/day] |
Abs. mag |
| 2026 May 09 17:57 | 2026 May 04 05:07:40 | 51.6570 | 0.50721 | 7.1542 | 64.8137 | 338.7618 | 5.33215 | – |
| 2026 May 08 17:57 | 2026 May 04 05:07:40 | 51.6570 | 0.50721 | 7.1542 | 64.8137 | 338.7618 | 5.33215 | – |
| 2026 May 07 17:58 | 2026 May 04 05:07:40 | 51.6570 | 0.50721 | 7.1542 | 64.8137 | 338.7618 | 5.33215 | – |
| 2026 May 06 17:57 | 2026 May 04 05:07:40 | 51.6570 | 0.50721 | 7.1542 | 64.8137 | 338.7618 | 5.33215 | – |
| 2026 May 05 17:57 | 2026 May 04 05:07:40 | 51.6570 | 0.50721 | 7.1542 | 64.8137 | 338.7618 | 5.33215 | – |
| 2026 May 04 17:57 | 2026 Apr 30 06:37:05 | 51.6561 | 0.50714 | 7.3498 | 62.6273 | 338.7618 | 5.33215 | – |
| 2026 May 03 17:57 | 2026 Apr 30 06:37:05 | 51.6561 | 0.50714 | 7.3498 | 62.6273 | 338.7618 | 5.33215 | – |
| 2026 May 02 17:57 | 2026 Apr 30 06:37:05 | 51.6561 | 0.50714 | 7.3498 | 62.6273 | 338.7618 | 5.33215 | – |
| 2026 May 01 17:56 | 2026 Apr 30 06:37:05 | 51.6561 | 0.50714 | 7.3498 | 62.6273 | 338.7618 | 5.33215 | – |
| 2026 Apr 30 17:56 | 2026 Apr 30 06:37:05 | 51.6561 | 0.50714 | 7.3498 | 62.6273 | 338.7618 | 5.33215 | – |
| 2026 Apr 29 17:57 | 2026 Apr 23 08:05:46 | 51.6563 | 0.50700 | 7.6944 | 58.7749 | 338.7618 | 5.33215 | – |
| 2026 Apr 28 17:56 | 2026 Apr 23 08:05:46 | 51.6563 | 0.50700 | 7.6944 | 58.7749 | 338.7618 | 5.33215 | – |
| 2026 Apr 27 17:58 | 2026 Apr 23 08:05:46 | 51.6563 | 0.50700 | 7.6944 | 58.7749 | 338.7618 | 5.33215 | – |
| 2026 Apr 26 17:58 | 2026 Apr 23 08:05:46 | 51.6563 | 0.50700 | 7.6944 | 58.7749 | 338.7618 | 5.33215 | – |
| 2026 Apr 25 17:58 | 2026 Apr 23 08:05:46 | 51.6563 | 0.50700 | 7.6944 | 58.7749 | 338.7618 | 5.33215 | – |
| 2026 Apr 24 17:59 | 2026 Apr 23 08:05:46 | 51.6563 | 0.50700 | 7.6944 | 58.7749 | 338.7618 | 5.33215 | – |
| 2026 Apr 23 17:57 | 2026 Apr 19 00:34:50 | 51.6572 | 0.50691 | 7.9087 | 56.3769 | 338.7618 | 5.33215 | – |
| 2026 Apr 22 17:57 | 2026 Apr 19 00:34:50 | 51.6572 | 0.50691 | 7.9087 | 56.3769 | 338.7618 | 5.33215 | – |
| 2026 Apr 21 17:57 | 2026 Apr 19 00:34:50 | 51.6572 | 0.50691 | 7.9087 | 56.3769 | 338.7618 | 5.33215 | – |
| 2026 Apr 20 17:57 | 2026 Apr 19 00:34:50 | 51.6572 | 0.50691 | 7.9087 | 56.3769 | 338.7618 | 5.33215 | – |
| 2026 Apr 19 17:58 | 2026 Apr 19 00:34:50 | 51.6572 | 0.50691 | 7.9087 | 56.3769 | 338.7618 | 5.33215 | – |
| 2026 Apr 18 17:56 | 2026 Apr 13 00:33:23 | 51.6554 | 0.50679 | 8.2065 | 53.0462 | 338.7618 | 5.33215 | – |
| 2026 Apr 16 17:57 | 2026 Apr 13 00:33:23 | 51.6554 | 0.50679 | 8.2065 | 53.0462 | 338.7618 | 5.33215 | – |
| 2026 Apr 14 17:57 | 2026 Apr 13 00:33:23 | 51.6554 | 0.50679 | 8.2065 | 53.0462 | 338.7618 | 5.33215 | – |
| 2026 Apr 13 17:57 | 2026 Apr 13 00:33:23 | 51.6554 | 0.50679 | 8.2065 | 53.0462 | 338.7618 | 5.33215 | – |
| 2026 Apr 12 17:57 | 2026 Apr 08 08:02:08 | 51.6544 | 0.50671 | 8.4392 | 50.4460 | 338.7618 | 5.33215 | – |